Time;durP1;ratioP1;P1;durP2;ratioP2;P2;SDS_P1;SDS_P2;PMS_P1;PMS_P2;Temp;Humidity;BMP_temperature;BMP_pressure;BME280_temperature;BME280_humidity;BME280_pressure;Samples;Min_cycle;Max_cycle;Signal;HPM_P1;HPM_P2
2023/03/13 00:01:44;;;;;;;6.03;2.40;;;;;;;10.32;100.00;100152.16;5100649;28;20055;-64
2023/03/13 00:04:12;;;;;;;10.75;3.00;;;;;;;10.27;100.00;100138.53;5114566;28;20066;-64
2023/03/13 00:06:41;;;;;;;7.50;2.90;;;;;;;10.19;100.00;100137.22;5090515;28;20036;-65
2023/03/13 00:09:10;;;;;;;7.22;2.47;;;;;;;10.28;100.00;100141.03;5107266;28;20135;-64
2023/03/13 00:11:38;;;;;;;7.53;2.83;;;;;;;10.31;100.00;100132.28;5105816;28;20127;-64
2023/03/13 00:14:06;;;;;;;16.10;3.70;;;;;;;10.36;100.00;100125.97;5112244;28;20054;-66
2023/03/13 00:16:36;;;;;;;8.80;2.75;;;;;;;10.51;100.00;100119.59;5133645;28;20058;-66
2023/03/13 00:19:05;;;;;;;6.85;2.67;;;;;;;10.73;100.00;100105.53;5091403;28;20503;-66
2023/03/13 00:21:33;;;;;;;7.45;2.80;;;;;;;10.88;100.00;100105.38;5112814;28;20044;-66
2023/03/13 00:24:01;;;;;;;7.07;2.85;;;;;;;10.84;100.00;100096.16;5111429;28;20510;-66
2023/03/13 00:26:29;;;;;;;5.20;2.33;;;;;;;10.83;100.00;100100.78;5099984;28;20078;-66
2023/03/13 00:28:57;;;;;;;14.27;3.65;;;;;;;10.78;100.00;100083.69;5079526;28;20048;-66
2023/03/13 00:31:30;;;;;;;8.77;3.05;;;;;;;10.76;100.00;100080.44;5102440;28;20094;-67
2023/03/13 00:34:00;;;;;;;9.40;2.80;;;;;;;10.71;100.00;100081.31;5092183;28;20396;-66
2023/03/13 00:36:30;;;;;;;10.43;2.88;;;;;;;10.85;100.00;100078.72;5092585;28;20048;-66
2023/03/13 00:38:59;;;;;;;7.93;2.70;;;;;;;10.93;100.00;100064.44;5098227;28;20043;-66
2023/03/13 00:41:29;;;;;;;8.98;3.00;;;;;;;11.10;100.00;100058.53;5112802;28;20061;-68
2023/03/13 00:43:57;;;;;;;7.95;3.10;;;;;;;10.87;100.00;100054.69;5112911;28;20054;-67
2023/03/13 00:46:27;;;;;;;7.60;2.60;;;;;;;10.85;100.00;100046.81;5114915;28;20051;-66
2023/03/13 00:48:55;;;;;;;7.70;2.80;;;;;;;10.57;100.00;100045.72;5117939;28;20052;-66
2023/03/13 00:51:25;;;;;;;16.73;4.82;;;;;;;10.55;100.00;100037.03;5093983;28;20044;-66
2023/03/13 00:53:54;;;;;;;8.32;2.25;;;;;;;10.72;100.00;100030.34;5079033;28;20084;-67
2023/03/13 00:56:22;;;;;;;6.57;2.70;;;;;;;10.83;100.00;100023.69;5097166;28;20097;-67
2023/03/13 00:58:50;;;;;;;8.40;2.80;;;;;;;10.77;100.00;100022.09;5095626;28;20048;-67
2023/03/13 01:01:19;;;;;;;11.40;3.63;;;;;;;10.54;100.00;100013.63;5096764;28;20483;-67
2023/03/13 01:03:50;;;;;;;5.82;2.25;;;;;;;10.62;100.00;100009.47;5098021;27;20039;-66
2023/03/13 01:06:22;;;;;;;8.38;2.75;;;;;;;10.88;100.00;100005.34;5113288;28;20073;-66
2023/03/13 01:08:50;;;;;;;7.45;2.40;;;;;;;10.67;100.00;99998.50;5096327;28;20047;-67
2023/03/13 01:11:26;;;;;;;7.22;2.70;;;;;;;10.73;100.00;99985.66;5099299;27;20071;-66
2023/03/13 01:13:56;;;;;;;8.10;2.90;;;;;;;10.85;100.00;99970.50;5116633;28;20407;-66
2023/03/13 01:16:27;;;;;;;11.18;3.63;;;;;;;11.03;100.00;99971.66;5095070;28;20048;-66
2023/03/13 01:18:58;;;;;;;5.72;2.35;;;;;;;11.04;100.00;99970.56;5095054;28;20044;-66
2023/03/13 01:21:27;;;;;;;9.65;3.30;;;;;;;11.07;100.00;99959.06;5107549;28;20115;-66
2023/03/13 01:23:56;;;;;;;12.20;3.60;;;;;;;10.82;100.00;99960.22;5116234;27;20060;-66
2023/03/13 01:26:24;;;;;;;7.30;2.75;;;;;;;10.86;100.00;99944.88;5115303;28;20043;-66
2023/03/13 01:28:53;;;;;;;5.85;2.53;;;;;;;10.76;100.00;99944.19;5116960;27;20118;-66
2023/03/13 01:31:27;;;;;;;6.80;2.20;;;;;;;10.82;100.00;99940.28;5081677;28;20067;-67
2023/03/13 01:33:57;;;;;;;6.63;2.22;;;;;;;11.00;100.00;99920.44;5072106;28;20051;-66
2023/03/13 01:36:26;;;;;;;9.77;3.08;;;;;;;10.98;100.00;99924.56;5063921;28;20466;-66
2023/03/13 01:38:55;;;;;;;4.95;2.20;;;;;;;10.92;100.00;99921.13;5094876;28;20040;-66
2023/03/13 01:41:25;;;;;;;7.07;2.70;;;;;;;10.93;100.00;99928.19;5094911;28;20036;-66
2023/03/13 01:43:54;;;;;;;8.88;2.92;;;;;;;10.75;100.00;99915.31;5104553;28;20050;-66
2023/03/13 01:46:27;;;;;;;7.93;2.33;;;;;;;10.70;100.00;99915.38;5083826;28;20063;-67
2023/03/13 01:49:06;;;;;;;6.60;2.53;;;;;;;10.85;100.00;99904.31;5094806;28;20047;-66
2023/03/13 01:51:53;;;;;;;5.90;2.63;;;;;;;11.06;100.00;99896.66;5111812;28;20052;-66
2023/03/13 01:54:22;;;;;;;5.28;2.30;;;;;;;11.01;100.00;99883.91;5077835;28;20040;-67
2023/03/13 01:56:57;;;;;;;4.50;2.00;;;;;;;11.31;100.00;99879.13;5095334;28;20051;-66
2023/03/13 01:59:31;;;;;;;5.88;2.30;;;;;;;11.15;100.00;99875.00;5077816;28;20048;-66
2023/03/13 02:02:01;;;;;;;7.43;2.65;;;;;;;11.04;100.00;99872.44;5077336;28;20052;-66
2023/03/13 02:04:48;;;;;;;6.47;2.55;;;;;;;11.01;100.00;99859.38;5079912;28;20047;-66
2023/03/13 02:07:21;;;;;;;7.35;3.03;;;;;;;10.84;100.00;99861.78;5111276;27;20541;-66
2023/03/13 02:09:51;;;;;;;6.18;2.20;;;;;;;10.80;100.00;99845.22;5112630;28;20119;-66
2023/03/13 02:12:31;;;;;;;4.63;2.13;;;;;;;10.90;100.00;99830.66;5112653;28;20035;-67
2023/03/13 02:15:15;;;;;;;4.20;2.10;;;;;;;11.08;100.00;99827.09;5098243;28;20036;-66
2023/03/13 02:17:44;;;;;;;8.95;2.75;;;;;;;11.00;100.00;99821.53;5111612;28;20056;-67
2023/03/13 02:20:13;;;;;;;10.70;3.67;;;;;;;10.75;100.00;99812.63;5109366;28;20388;-68
2023/03/13 02:23:02;;;;;;;6.45;2.25;;;;;;;10.84;100.00;99819.00;5078193;28;20407;-67
2023/03/13 02:25:50;;;;;;;8.43;3.03;;;;;;;10.95;100.00;99803.31;5076932;28;20105;-66
2023/03/13 02:28:34;;;;;;;11.75;3.15;;;;;;;11.02;100.00;99800.22;5093697;28;20052;-67
2023/03/13 02:31:05;;;;;;;4.68;2.03;;;;;;;10.77;100.00;99779.59;5113093;27;20121;-69
2023/03/13 02:33:39;;;;;;;9.73;2.97;;;;;;;10.86;100.00;99764.22;5105889;27;20048;-66
2023/03/13 02:36:08;;;;;;;3.97;2.08;;;;;;;10.94;100.00;99763.53;5090817;28;20047;-66
2023/03/13 02:38:50;;;;;;;5.32;2.30;;;;;;;11.17;100.00;99772.72;5093367;28;20043;-66
2023/03/13 02:41:20;;;;;;;7.85;2.72;;;;;;;11.11;100.00;99779.34;5095585;27;20068;-66
2023/03/13 02:43:48;;;;;;;7.80;2.50;;;;;;;11.00;100.00;99776.00;5097369;28;20491;-68
2023/03/13 02:46:19;;;;;;;8.90;3.05;;;;;;;10.83;100.00;99770.25;5112325;28;20543;-67
2023/03/13 02:48:53;;;;;;;3.58;1.38;;;;;;;10.57;100.00;99773.34;5113960;28;20084;-66
2023/03/13 02:51:37;;;;;;;8.50;3.08;;;;;;;10.54;100.00;99768.50;5081690;28;20050;-66
2023/03/13 02:54:10;;;;;;;8.68;2.63;;;;;;;10.40;100.00;99762.16;5114752;27;20047;-66
2023/03/13 02:56:40;;;;;;;8.43;2.90;;;;;;;10.56;100.00;99768.19;5117428;28;20123;-66
2023/03/13 02:59:10;;;;;;;4.78;1.90;;;;;;;10.50;100.00;99764.72;5084042;28;20097;-67
2023/03/13 03:01:41;;;;;;;6.10;2.70;;;;;;;10.64;100.00;99764.81;5100882;28;20048;-67
2023/03/13 03:04:09;;;;;;;2.83;1.55;;;;;;;10.79;100.00;99763.78;5098814;28;20444;-67
2023/03/13 03:06:37;;;;;;;5.68;2.30;;;;;;;10.81;100.00;99772.47;5118328;28;20077;-67
2023/03/13 03:09:05;;;;;;;5.63;2.17;;;;;;;10.69;100.00;99761.22;5116622;28;20048;-66
2023/03/13 03:11:35;;;;;;;5.20;2.13;;;;;;;10.59;100.00;99765.69;5086623;28;20121;-67
2023/03/13 03:14:07;;;;;;;7.95;2.97;;;;;;;10.56;100.00;99766.28;5094642;28;20052;-66
2023/03/13 03:16:39;;;;;;;9.05;3.20;;;;;;;10.47;100.00;99757.16;5077226;28;20127;-66
2023/03/13 03:19:09;;;;;;;7.95;2.97;;;;;;;10.56;100.00;99758.13;5075772;28;20450;-66
2023/03/13 03:21:37;;;;;;;7.10;2.92;;;;;;;10.44;100.00;99752.31;5075870;28;20097;-66
2023/03/13 03:24:05;;;;;;;7.10;2.92;;;;;;;10.37;100.00;99758.09;5095705;27;20075;-68
2023/03/13 03:26:33;;;;;;;6.70;3.00;;;;;;;10.41;100.00;99764.59;5115316;28;20051;-67
2023/03/13 03:29:04;;;;;;;9.48;3.33;;;;;;;10.37;100.00;99760.03;5097153;28;20043;-66
2023/03/13 03:31:32;;;;;;;7.20;2.70;;;;;;;10.42;100.00;99751.78;5113500;28;20434;-67
2023/03/13 03:34:01;;;;;;;6.78;2.90;;;;;;;10.54;100.00;99760.31;5113458;28;20082;-67
2023/03/13 03:36:29;;;;;;;6.15;2.50;;;;;;;10.63;100.00;99753.13;5095355;28;20491;-65
2023/03/13 03:38:57;;;;;;;3.97;1.50;;;;;;;10.58;100.00;99742.28;5113016;28;20051;-66
2023/03/13 03:41:26;;;;;;;5.43;2.13;;;;;;;10.64;100.00;99741.09;5076334;28;20040;-65
2023/03/13 03:43:55;;;;;;;5.80;2.40;;;;;;;10.65;100.00;99736.47;5057958;28;20051;-67
2023/03/13 03:46:27;;;;;;;7.53;2.60;;;;;;;10.67;100.00;99739.69;5071712;28;20111;-61
2023/03/13 03:48:56;;;;;;;4.22;1.98;;;;;;;10.71;100.00;99735.28;5096841;28;20050;-65
2023/03/13 03:51:24;;;;;;;4.60;2.53;;;;;;;10.85;100.00;99751.72;5144140;28;20050;-66
2023/03/13 03:53:54;;;;;;;3.58;2.10;;;;;;;10.81;100.00;99742.50;5117698;28;20055;-66
2023/03/13 03:56:22;;;;;;;5.82;2.80;;;;;;;10.77;100.00;99752.34;5104393;28;20083;-59
2023/03/13 03:58:54;;;;;;;4.57;2.60;;;;;;;10.87;100.00;99746.75;5091347;28;20040;-61
2023/03/13 04:01:41;;;;;;;3.90;2.28;;;;;;;10.78;100.00;99751.28;5121871;28;20059;-60
2023/03/13 04:04:09;;;;;;;2.30;1.70;;;;;;;10.67;100.00;99734.25;5103338;28;20093;-67
2023/03/13 04:06:39;;;;;;;6.22;2.72;;;;;;;10.68;100.00;99737.78;5080647;28;20040;-66
2023/03/13 04:09:08;;;;;;;3.60;1.58;;;;;;;10.67;100.00;99728.81;5092984;28;20058;-67
2023/03/13 04:11:38;;;;;;;2.22;1.50;;;;;;;10.76;100.00;99731.69;5076104;28;20377;-66
2023/03/13 04:14:08;;;;;;;5.18;2.67;;;;;;;10.78;100.00;99718.56;5104788;28;20048;-66
2023/03/13 04:16:36;;;;;;;2.63;1.52;;;;;;;10.78;100.00;99724.03;5079137;28;20372;-67
2023/03/13 04:19:04;;;;;;;4.03;2.10;;;;;;;10.85;100.00;99727.97;5112690;28;20036;-67
2023/03/13 04:21:32;;;;;;;3.33;1.80;;;;;;;10.76;100.00;99731.69;5114543;28;20119;-66
2023/03/13 04:24:05;;;;;;;6.57;2.90;;;;;;;10.73;100.00;99715.94;5116792;28;20044;-66
2023/03/13 04:26:34;;;;;;;7.10;3.10;;;;;;;10.70;100.00;99717.31;5113722;27;20051;-70
2023/03/13 04:29:02;;;;;;;4.65;2.17;;;;;;;10.74;100.00;99706.66;5116436;28;20048;-67
2023/03/13 04:31:46;;;;;;;4.15;1.50;;;;;;;10.79;100.00;99693.75;5099589;28;20048;-68
2023/03/13 04:34:46;;;;;;;7.88;3.20;;;;;;;10.86;100.00;99699.63;5102108;28;20126;-67
2023/03/13 04:37:27;;;;;;;9.27;3.15;;;;;;;10.93;100.00;99691.06;5115678;28;20047;-66
2023/03/13 04:40:33;;;;;;;3.63;1.70;;;;;;;11.12;100.00;99673.88;5086417;28;20400;-66
2023/03/13 04:43:09;;;;;;;4.35;2.05;;;;;;;11.04;100.00;99673.44;5080213;28;20403;-66
2023/03/13 04:46:12;;;;;;;7.00;3.00;;;;;;;11.03;100.00;99671.81;5062787;28;20433;-66
2023/03/13 04:48:58;;;;;;;4.88;2.22;;;;;;;11.15;100.00;99667.81;5095557;28;20052;-66
2023/03/13 04:51:47;;;;;;;7.45;2.80;;;;;;;11.11;100.00;99667.56;5097112;28;20051;-67
2023/03/13 04:54:40;;;;;;;4.75;2.58;;;;;;;11.01;100.00;99662.31;5092370;28;20555;-66
2023/03/13 04:57:18;;;;;;;5.75;2.67;;;;;;;11.05;100.00;99650.50;5095476;28;20055;-67
2023/03/13 05:00:09;;;;;;;4.97;2.80;;;;;;;11.12;100.00;99652.84;5098617;28;20056;-67
2023/03/13 05:03:03;;;;;;;3.70;1.80;;;;;;;11.21;100.00;99655.72;5100110;28;20058;-66
2023/03/13 05:06:00;;;;;;;4.40;2.00;;;;;;;11.27;100.00;99657.22;5077507;28;20049;-67
2023/03/13 05:08:48;;;;;;;4.28;1.92;;;;;;;11.20;100.00;99645.91;5100269;28;20047;-69
2023/03/13 05:11:19;;;;;;;5.85;2.50;;;;;;;11.33;100.00;99647.00;5095494;28;20044;-66
2023/03/13 05:14:12;;;;;;;6.47;2.70;;;;;;;11.31;100.00;99633.69;5109575;28;20055;-67
2023/03/13 05:17:12;;;;;;;7.60;2.88;;;;;;;11.46;100.00;99632.59;5083337;28;20503;-66
2023/03/13 05:20:08;;;;;;;3.33;1.95;;;;;;;11.36;100.00;99630.06;5094004;28;20126;-67
2023/03/13 05:22:44;;;;;;;5.68;2.45;;;;;;;11.29;100.00;99630.47;5077744;28;20040;-66
2023/03/13 05:25:33;;;;;;;3.05;1.58;;;;;;;11.26;100.00;99633.78;5102740;27;20548;-66
2023/03/13 05:28:25;;;;;;;6.57;3.05;;;;;;;11.24;100.00;99634.09;5103785;28;20063;-66
2023/03/13 05:31:13;;;;;;;8.98;2.78;;;;;;;11.19;100.00;99631.47;5094692;28;20094;-66
2023/03/13 05:33:56;;;;;;;2.53;1.23;;;;;;;11.22;100.00;99630.03;5094185;28;20126;-66
2023/03/13 05:36:33;;;;;;;8.00;2.95;;;;;;;11.22;100.00;99627.31;5095056;28;20494;-66
2023/03/13 05:39:23;;;;;;;7.07;3.22;;;;;;;11.22;100.00;99624.59;5108033;27;20040;-67
2023/03/13 05:42:11;;;;;;;3.75;1.77;;;;;;;11.23;100.00;99632.47;5112413;28;20127;-66
2023/03/13 05:44:47;;;;;;;;;;;;;;;11.28;100.00;99637.00;5099951;28;20518;-67
2023/03/13 05:47:42;;;;;;;9.38;3.10;;;;;;;11.41;100.00;99632.69;5114700;28;20367;-66
2023/03/13 05:50:33;;;;;;;5.57;2.47;;;;;;;11.35;100.00;99633.88;5096326;27;20075;-66
2023/03/13 05:53:29;;;;;;;6.75;2.85;;;;;;;11.35;100.00;99640.13;5092125;28;20083;-66
2023/03/13 05:56:11;;;;;;;7.88;2.72;;;;;;;11.39;100.00;99634.91;5115209;27;20494;-66
2023/03/13 05:58:48;;;;;;;3.45;1.38;;;;;;;11.37;100.00;99620.75;5097721;28;20487;-67
2023/03/13 06:01:35;;;;;;;10.88;3.20;;;;;;;11.45;100.00;99629.06;5115586;28;20050;-66
2023/03/13 06:04:14;;;;;;;9.13;3.60;;;;;;;11.39;100.00;99629.44;5096183;28;20051;-65
2023/03/13 06:06:42;;;;;;;10.13;3.45;;;;;;;11.37;100.00;99620.75;5106028;28;20059;-66
2023/03/13 06:09:10;;;;;;;12.15;4.03;;;;;;;11.34;100.00;99627.63;5113019;28;20048;-65
2023/03/13 06:11:39;;;;;;;12.25;3.70;;;;;;;11.34;100.00;99635.81;5084593;28;20040;-65
2023/03/13 06:14:07;;;;;;;7.53;3.00;;;;;;;11.33;100.00;99628.75;5099554;28;20083;-67
2023/03/13 06:16:46;;;;;;;5.93;2.42;;;;;;;11.34;100.00;99635.00;5086133;28;20134;-66
2023/03/13 06:19:21;;;;;;;9.63;3.17;;;;;;;11.44;100.00;99630.16;5098166;28;20039;-66
2023/03/13 06:21:49;;;;;;;8.95;3.53;;;;;;;11.44;100.00;99627.41;5113893;28;20447;-64
2023/03/13 06:24:17;;;;;;;8.00;2.88;;;;;;;11.48;100.00;99622.97;5115251;28;20044;-66
2023/03/13 06:26:46;;;;;;;8.65;2.63;;;;;;;11.51;100.00;99624.28;5115217;28;20115;-65
2023/03/13 06:29:16;;;;;;;8.55;3.00;;;;;;;11.58;100.00;99618.44;5110325;27;20047;-66
2023/03/13 06:31:44;;;;;;;9.43;3.20;;;;;;;11.60;100.00;99629.88;5093392;28;20071;-66
2023/03/13 06:34:12;;;;;;;10.38;3.13;;;;;;;11.60;100.00;99622.47;5094696;28;20451;-67
2023/03/13 06:36:40;;;;;;;4.53;2.08;;;;;;;11.56;100.00;99623.38;5076560;28;20063;-66
2023/03/13 06:39:08;;;;;;;5.38;1.85;;;;;;;11.62;100.00;99627.63;5097396;28;20103;-67
2023/03/13 06:41:36;;;;;;;10.03;3.33;;;;;;;11.67;100.00;99619.34;4752841;28;10000809;-68
2023/03/13 06:44:04;;;;;;;6.50;2.42;;;;;;;11.62;100.00;99616.72;5098021;28;20298;-67
2023/03/13 06:46:31;;;;;;;10.20;3.28;;;;;;;11.58;100.00;99621.16;5090000;28;20052;-66
2023/03/13 06:49:03;;;;;;;8.23;2.50;;;;;;;11.58;100.00;99627.44;5089922;28;20058;-67
2023/03/13 06:51:31;;;;;;;3.67;1.85;;;;;;;11.65;100.00;99613.38;5107563;27;20438;-65
2023/03/13 06:54:00;;;;;;;8.07;3.05;;;;;;;11.70;100.00;99618.72;5111101;28;20063;-66
2023/03/13 06:56:28;;;;;;;12.73;3.80;;;;;;;11.79;100.00;99624.28;5091569;28;20054;-67
2023/03/13 06:58:55;;;;;;;7.53;2.40;;;;;;;11.83;100.00;99626.06;5091003;28;20044;-66
2023/03/13 07:01:26;;;;;;;9.55;3.28;;;;;;;11.85;100.00;99623.84;5089700;28;20072;-67
2023/03/13 07:03:54;;;;;;;8.57;2.80;;;;;;;11.75;100.00;99618.63;5090558;28;20105;-67
2023/03/13 07:06:22;;;;;;;6.97;2.33;;;;;;;11.69;100.00;99612.47;5090078;28;20492;-67
2023/03/13 07:08:50;;;;;;;9.85;2.80;;;;;;;11.68;100.00;99620.94;5073122;28;20479;-67
2023/03/13 07:11:18;;;;;;;10.32;3.95;;;;;;;11.78;100.00;99615.28;5090679;28;20454;-66
2023/03/13 07:13:45;;;;;;;9.63;2.90;;;;;;;11.87;100.00;99623.59;5110938;28;20134;-69
2023/03/13 07:16:13;;;;;;;5.30;1.92;;;;;;;11.96;100.00;99612.75;5109414;28;20066;-67
2023/03/13 07:18:43;;;;;;;8.90;3.08;;;;;;;11.91;100.00;99625.41;5108300;28;20338;-66
2023/03/13 07:21:11;;;;;;;10.38;2.75;;;;;;;11.93;100.00;99606.78;5110870;28;20112;-67
2023/03/13 07:23:40;;;;;;;8.95;3.00;;;;;;;11.85;100.00;99626.59;5109887;27;20137;-70
2023/03/13 07:26:10;;;;;;;13.45;3.00;;;;;;;11.94;100.00;99613.84;5090337;28;20055;-67
2023/03/13 07:28:38;;;;;;;8.95;3.00;;;;;;;11.89;100.00;99618.63;5089221;28;20051;-68
2023/03/13 07:31:15;;;;;;;13.32;4.22;;;;;;;11.88;100.00;99612.38;5074712;28;20051;-67
2023/03/13 07:33:44;;;;;;;11.48;3.72;;;;;;;11.83;100.00;99611.63;5075562;28;20044;-66
2023/03/13 07:36:14;;;;;;;10.30;3.40;;;;;;;11.86;100.00;99616.50;5089977;28;20056;-67
2023/03/13 07:38:42;;;;;;;8.80;2.78;;;;;;;11.83;100.00;99611.63;5110118;28;20051;-66
2023/03/13 07:41:14;;;;;;;8.82;2.33;;;;;;;11.84;100.00;99603.16;5094705;28;20040;-66
2023/03/13 07:43:43;;;;;;;9.02;2.88;;;;;;;11.84;100.00;99618.72;5113780;28;20050;-65
2023/03/13 07:46:17;;;;;;;10.75;2.97;;;;;;;11.86;100.00;99611.03;5120182;28;20047;-63
2023/03/13 07:48:45;;;;;;;10.32;3.53;;;;;;;12.00;100.00;99611.00;5119401;28;20495;-66
2023/03/13 07:51:19;;;;;;;9.77;3.17;;;;;;;12.01;100.00;99613.44;5119660;28;20048;-66
2023/03/13 07:53:56;;;;;;;8.75;2.70;;;;;;;12.08;100.00;99608.38;5119091;28;20082;-64
2023/03/13 07:56:24;;;;;;;14.23;3.60;;;;;;;12.07;100.00;99609.47;5116029;28;20416;-64
2023/03/13 07:58:52;;;;;;;11.60;3.28;;;;;;;12.06;100.00;99615.25;5103453;28;20047;-65
2023/03/13 08:01:22;;;;;;;6.00;1.70;;;;;;;12.14;100.00;99619.97;5113119;28;20483;-65
2023/03/13 08:03:54;;;;;;;13.35;3.53;;;;;;;12.08;100.00;99610.31;5095828;28;20089;-69
2023/03/13 08:06:24;;;;;;;9.00;3.25;;;;;;;11.99;100.00;99612.16;5112526;28;20118;-66
2023/03/13 08:08:55;;;;;;;11.82;3.70;;;;;;;11.92;100.00;99621.53;5101182;28;20052;-64
2023/03/13 08:11:24;;;;;;;11.82;4.05;;;;;;;11.97;100.00;99614.38;5106498;28;20048;-70
2023/03/13 08:13:53;;;;;;;9.55;3.28;;;;;;;11.93;100.00;99606.00;5104883;28;20043;-65
2023/03/13 08:16:29;;;;;;;12.13;3.58;;;;;;;11.93;100.00;99601.34;5112925;28;20043;-67
2023/03/13 08:18:58;;;;;;;14.65;3.95;;;;;;;11.93;100.00;99595.88;5113782;28;20548;-66
2023/03/13 08:21:28;;;;;;;11.88;3.80;;;;;;;11.98;100.00;99594.97;5082015;28;20131;-65
2023/03/13 08:23:58;;;;;;;11.65;3.65;;;;;;;12.00;100.00;99584.53;5111034;28;20414;-66
2023/03/13 08:26:28;;;;;;;14.18;3.97;;;;;;;12.00;100.00;99578.25;5113812;28;20127;-67
2023/03/13 08:28:58;;;;;;;12.13;4.10;;;;;;;12.01;100.00;99585.34;5113637;28;20134;-67
2023/03/13 08:31:29;;;;;;;14.57;3.30;;;;;;;12.04;100.00;99585.53;5108579;28;20074;-65
2023/03/13 08:33:57;;;;;;;12.60;3.35;;;;;;;12.12;100.00;99582.06;5109018;28;20405;-65
2023/03/13 08:36:27;;;;;;;9.95;3.40;;;;;;;12.14;100.00;99584.47;5112723;28;20078;-66
2023/03/13 08:38:57;;;;;;;11.80;3.92;;;;;;;12.15;100.00;99588.84;5112560;28;20090;-65
2023/03/13 08:41:27;;;;;;;16.75;4.13;;;;;;;12.28;100.00;99596.16;5112049;28;20047;-65
2023/03/13 08:43:56;;;;;;;14.13;4.45;;;;;;;12.35;100.00;99604.72;5112994;28;20407;-66
2023/03/13 08:46:24;;;;;;;10.07;3.92;;;;;;;12.60;100.00;99591.56;5091215;28;20040;-66
2023/03/13 08:48:53;;;;;;;11.63;3.63;;;;;;;12.46;100.00;99599.00;5092822;28;20087;-66
2023/03/13 08:51:23;;;;;;;8.65;3.60;;;;;;;12.30;100.00;99593.94;5090743;28;20123;-67
2023/03/13 08:53:51;;;;;;;15.65;4.03;;;;;;;12.24;100.00;99584.25;5093190;28;20052;-67
2023/03/13 08:56:21;;;;;;;9.90;3.35;;;;;;;12.22;100.00;99589.22;5092225;28;20130;-66
2023/03/13 08:58:51;;;;;;;7.78;3.10;;;;;;;12.14;100.00;99601.66;5094133;28;20083;-66
2023/03/13 09:01:19;;;;;;;10.77;4.05;;;;;;;12.10;100.00;99597.97;5091786;28;20047;-67
2023/03/13 09:03:47;;;;;;;9.90;3.10;;;;;;;12.11;100.00;99599.56;5092196;28;20040;-66
2023/03/13 09:06:15;;;;;;;13.98;5.03;;;;;;;12.13;100.00;99582.88;5092187;28;20404;-66
2023/03/13 09:08:43;;;;;;;13.60;3.38;;;;;;;12.09;100.00;99576.41;5094891;28;20063;-66
2023/03/13 09:11:16;;;;;;;12.07;3.42;;;;;;;12.09;100.00;99569.03;5078604;28;20048;-66
2023/03/13 09:13:46;;;;;;;17.98;5.55;;;;;;;12.21;100.00;99560.28;5096359;28;20116;-66
2023/03/13 09:16:19;;;;;;;12.93;3.90;;;;;;;12.27;100.00;99561.78;5095431;28;20127;-66
2023/03/13 09:18:47;;;;;;;14.35;4.25;;;;;;;12.31;100.00;99549.13;5096497;28;20085;-66
2023/03/13 09:21:17;;;;;;;16.70;4.05;;;;;;;12.42;100.00;99540.69;5094531;28;20048;-66
2023/03/13 09:23:46;;;;;;;21.98;6.20;;;;;;;12.52;100.00;99529.47;5095015;28;20043;-66
2023/03/13 09:26:15;;;;;;;18.90;5.88;;;;;;;12.67;100.00;99537.28;5094705;28;20044;-67
2023/03/13 09:28:42;;;;;;;10.10;3.00;;;;;;;12.75;100.00;99541.19;5078287;28;20052;-65
2023/03/13 09:31:18;;;;;;;11.30;3.80;;;;;;;12.82;100.00;99522.41;5095031;28;20052;-67
2023/03/13 09:33:47;;;;;;;9.35;3.45;;;;;;;12.88;100.00;99521.13;5094855;28;20050;-65
2023/03/13 09:36:16;;;;;;;11.77;3.28;;;;;;;12.85;100.00;99520.97;5107436;28;20134;-66
2023/03/13 09:38:47;;;;;;;21.23;6.70;;;;;;;13.00;100.00;99517.81;5115234;28;20039;-67
2023/03/13 09:41:32;;;;;;;14.32;5.07;;;;;;;13.20;100.00;99509.03;5116171;28;20058;-65
2023/03/13 09:44:15;;;;;;;18.92;5.38;;;;;;;13.28;100.00;99512.16;5116752;28;20047;-66
2023/03/13 09:46:58;;;;;;;22.05;5.82;;;;;;;13.32;100.00;99504.91;5116084;28;20050;-65
2023/03/13 09:49:53;;;;;;;9.77;3.42;;;;;;;13.33;100.00;99492.84;5098949;28;20051;-67
2023/03/13 09:52:26;;;;;;;21.55;5.32;;;;;;;13.42;100.00;99494.47;5096490;28;20515;-66
2023/03/13 09:55:30;;;;;;;19.58;6.20;;;;;;;13.48;100.00;99473.22;5094440;28;20074;-67
2023/03/13 09:58:09;;;;;;;8.73;3.10;;;;;;;13.42;100.00;99482.69;4984308;28;20128;-67
2023/03/13 10:00:39;;;;;;;10.43;3.58;;;;;;;13.48;100.00;99477.91;5096324;28;20069;-67
2023/03/13 10:03:14;;;;;;;7.55;3.45;;;;;;;13.44;100.00;99483.19;5080582;28;20074;-67
2023/03/13 10:06:17;;;;;;;13.15;3.88;;;;;;;13.45;100.00;99484.00;5097124;28;20051;-67
2023/03/13 10:08:45;;;;;;;11.07;3.33;;;;;;;13.59;100.00;99481.94;5097446;28;20698;-66
2023/03/13 10:11:18;;;;;;;11.40;3.30;;;;;;;13.54;100.00;99487.53;5097568;28;20078;-66
2023/03/13 10:13:56;;;;;;;8.10;2.65;;;;;;;13.49;100.00;99487.69;5112772;28;20044;-66
2023/03/13 10:16:28;;;;;;;7.38;3.25;;;;;;;13.49;100.00;99488.50;5115580;28;20067;-67
2023/03/13 10:19:01;;;;;;;10.48;2.90;;;;;;;13.40;100.00;99482.25;5096999;28;20475;-67
2023/03/13 10:21:33;;;;;;;7.47;3.13;;;;;;;13.37;100.00;99482.84;5113891;28;20118;-67
2023/03/13 10:24:17;;;;;;;13.75;4.57;;;;;;;13.38;100.00;99479.00;5097359;28;20047;-67
2023/03/13 10:26:45;;;;;;;9.07;3.42;;;;;;;13.58;100.00;99472.91;5094770;28;20048;-67
2023/03/13 10:29:20;;;;;;;14.07;3.55;;;;;;;13.57;100.00;99468.56;5094755;28;20086;-66
2023/03/13 10:31:59;;;;;;;6.53;2.78;;;;;;;13.56;100.00;99472.41;5094888;28;20051;-67
2023/03/13 10:34:29;;;;;;;8.60;2.75;;;;;;;13.59;100.00;99462.78;5093182;28;20076;-67
2023/03/13 10:36:59;;;;;;;8.05;3.22;;;;;;;13.67;100.00;99466.63;5100396;28;20089;-66
2023/03/13 10:39:28;;;;;;;8.77;2.83;;;;;;;13.71;100.00;99460.19;5113588;28;20127;-67
2023/03/13 10:41:58;;;;;;;6.93;2.40;;;;;;;13.71;100.00;99459.38;5113657;28;20056;-66
2023/03/13 10:44:32;;;;;;;8.95;3.35;;;;;;;13.71;100.00;99443.78;5113459;28;20188;-67
2023/03/13 10:47:01;;;;;;;6.10;2.67;;;;;;;13.79;100.00;99456.66;5113701;28;20506;-67
2023/03/13 10:49:30;;;;;;;7.53;2.85;;;;;;;13.82;100.00;99441.50;5102314;28;20496;-67
2023/03/13 10:52:03;;;;;;;5.28;2.35;;;;;;;13.80;100.00;99460.19;5092605;28;20040;-67
2023/03/13 10:54:36;;;;;;;7.95;3.15;;;;;;;13.84;100.00;99439.25;5093143;28;20056;-67
2023/03/13 10:57:28;;;;;;;7.00;2.45;;;;;;;13.87;100.00;99441.34;5095834;28;20066;-68
2023/03/13 10:59:56;;;;;;;6.68;2.40;;;;;;;13.86;100.00;99434.25;5068478;28;20109;-65
2023/03/13 11:02:27;;;;;;;8.50;3.28;;;;;;;13.88;100.00;99442.97;5086027;28;20048;-65
2023/03/13 11:04:56;;;;;;;8.90;2.60;;;;;;;13.92;100.00;99430.22;5092789;28;20456;-65
2023/03/13 11:07:31;;;;;;;7.35;2.83;;;;;;;13.94;100.00;99433.44;5094372;28;20063;-65
2023/03/13 11:10:13;;;;;;;5.90;2.58;;;;;;;13.98;100.00;99426.19;5094279;28;20134;-66
2023/03/13 11:12:51;;;;;;;6.35;2.95;;;;;;;13.94;100.00;99435.38;5094068;28;20044;-66
2023/03/13 11:15:30;;;;;;;8.15;2.88;;;;;;;13.91;100.00;99431.34;5091930;28;20051;-66
2023/03/13 11:18:22;;;;;;;6.05;2.72;;;;;;;13.90;100.00;99428.94;5092570;28;20062;-66
2023/03/13 11:20:50;;;;;;;5.35;2.17;;;;;;;13.88;100.00;99425.69;5053797;28;20407;-65
2023/03/13 11:23:39;;;;;;;7.10;2.83;;;;;;;13.96;100.00;99439.41;5082169;28;20032;-67
2023/03/13 11:26:38;;;;;;;6.47;2.33;;;;;;;13.99;100.00;99416.81;5075249;28;20044;-65
2023/03/13 11:29:11;;;;;;;7.82;2.75;;;;;;;14.04;100.00;99411.19;5113084;28;20120;-67
2023/03/13 11:31:45;;;;;;;4.90;2.22;;;;;;;14.09;100.00;99410.19;5090059;28;20048;-66
2023/03/13 11:34:18;;;;;;;6.95;3.05;;;;;;;14.15;99.42;99400.69;5080098;28;20147;-65
2023/03/13 11:37:01;;;;;;;7.93;3.05;;;;;;;14.20;97.46;99416.16;5095140;28;20035;-67
2023/03/13 11:39:53;;;;;;;9.50;2.90;;;;;;;14.24;97.18;99406.94;4400137;28;10000669;-64
2023/03/13 11:42:40;;;;;;;5.82;2.47;;;;;;;14.20;96.48;99403.25;5121796;28;20044;-66
2023/03/13 11:45:29;;;;;;;3.03;2.03;;;;;;;14.19;96.50;99392.59;5116555;28;20050;-65
2023/03/13 11:48:05;;;;;;;6.43;2.05;;;;;;;14.27;94.91;99391.78;5126186;28;20067;-63
2023/03/13 11:50:49;;;;;;;10.85;3.97;;;;;;;14.31;93.22;99379.06;5109027;28;20071;-63
2023/03/13 11:53:38;;;;;;;8.18;3.15;;;;;;;14.32;90.37;99377.91;5116553;28;20066;-67